sensor_id;sensor_type;location;lat;lon;timestamp;temperature;humidity
47618;DHT22;33336;36.728;-4.414;2023-03-31T00:01:17;23.20;64.10
47618;DHT22;33336;36.728;-4.414;2023-03-31T00:06:20;23.30;63.60
47618;DHT22;33336;36.728;-4.414;2023-03-31T00:11:24;23.30;63.80
47618;DHT22;33336;36.728;-4.414;2023-03-31T00:16:27;23.20;63.80
47618;DHT22;33336;36.728;-4.414;2023-03-31T00:21:30;23.20;64.30
47618;DHT22;33336;36.728;-4.414;2023-03-31T00:26:37;23.20;64.10
47618;DHT22;33336;36.728;-4.414;2023-03-31T00:31:40;22.90;65.10
47618;DHT22;33336;36.728;-4.414;2023-03-31T00:36:43;23.00;65.20
47618;DHT22;33336;36.728;-4.414;2023-03-31T00:41:49;22.40;66.30
47618;DHT22;33336;36.728;-4.414;2023-03-31T00:46:54;22.60;66.20
47618;DHT22;33336;36.728;-4.414;2023-03-31T00:52:01;22.50;66.20
47618;DHT22;33336;36.728;-4.414;2023-03-31T00:57:07;22.50;66.10
47618;DHT22;33336;36.728;-4.414;2023-03-31T01:02:12;22.70;65.50
47618;DHT22;33336;36.728;-4.414;2023-03-31T01:07:21;22.70;65.30
47618;DHT22;33336;36.728;-4.414;2023-03-31T01:12:27;22.50;66.00
47618;DHT22;33336;36.728;-4.414;2023-03-31T01:17:30;22.70;65.80
47618;DHT22;33336;36.728;-4.414;2023-03-31T01:23:17;22.60;65.90
47618;DHT22;33336;36.728;-4.414;2023-03-31T01:28:31;22.80;65.40
47618;DHT22;33336;36.728;-4.414;2023-03-31T01:44:46;22.70;64.00
47618;DHT22;33336;36.728;-4.414;2023-03-31T01:49:57;22.90;64.10
47618;DHT22;33336;36.728;-4.414;2023-03-31T01:55:06;22.90;63.50
47618;DHT22;33336;36.728;-4.414;2023-03-31T02:00:14;22.80;63.60
47618;DHT22;33336;36.728;-4.414;2023-03-31T02:05:21;22.70;63.70
47618;DHT22;33336;36.728;-4.414;2023-03-31T02:10:29;22.60;64.10
47618;DHT22;33336;36.728;-4.414;2023-03-31T02:15:37;22.50;65.10
47618;DHT22;33336;36.728;-4.414;2023-03-31T02:20:43;22.60;65.80
47618;DHT22;33336;36.728;-4.414;2023-03-31T02:25:49;22.30;66.80
47618;DHT22;33336;36.728;-4.414;2023-03-31T02:31:09;22.00;67.20
47618;DHT22;33336;36.728;-4.414;2023-03-31T02:36:13;22.20;66.50
47618;DHT22;33336;36.728;-4.414;2023-03-31T02:41:16;22.30;66.60
47618;DHT22;33336;36.728;-4.414;2023-03-31T02:46:20;22.50;66.10
47618;DHT22;33336;36.728;-4.414;2023-03-31T02:57:27;22.30;66.20
47618;DHT22;33336;36.728;-4.414;2023-03-31T03:02:45;22.10;66.10
47618;DHT22;33336;36.728;-4.414;2023-03-31T03:07:55;22.20;64.00
47618;DHT22;33336;36.728;-4.414;2023-03-31T03:13:05;22.20;64.10
47618;DHT22;33336;36.728;-4.414;2023-03-31T03:18:12;22.50;63.40
47618;DHT22;33336;36.728;-4.414;2023-03-31T03:23:16;22.60;62.70
47618;DHT22;33336;36.728;-4.414;2023-03-31T03:28:19;22.60;63.10
47618;DHT22;33336;36.728;-4.414;2023-03-31T03:33:23;22.60;62.80
47618;DHT22;33336;36.728;-4.414;2023-03-31T03:38:26;22.50;62.80
47618;DHT22;33336;36.728;-4.414;2023-03-31T03:43:29;22.50;64.20
47618;DHT22;33336;36.728;-4.414;2023-03-31T03:48:33;22.50;63.60
47618;DHT22;33336;36.728;-4.414;2023-03-31T03:53:36;22.60;63.60
47618;DHT22;33336;36.728;-4.414;2023-03-31T03:58:39;22.30;64.20
47618;DHT22;33336;36.728;-4.414;2023-03-31T04:03:43;22.40;63.70
47618;DHT22;33336;36.728;-4.414;2023-03-31T04:08:46;22.40;64.30
47618;DHT22;33336;36.728;-4.414;2023-03-31T04:13:49;22.40;64.50
47618;DHT22;33336;36.728;-4.414;2023-03-31T04:18:53;22.20;64.60
47618;DHT22;33336;36.728;-4.414;2023-03-31T04:24:00;22.30;64.80
47618;DHT22;33336;36.728;-4.414;2023-03-31T04:29:05;22.20;65.00
47618;DHT22;33336;36.728;-4.414;2023-03-31T04:34:09;22.30;64.40
47618;DHT22;33336;36.728;-4.414;2023-03-31T04:39:14;22.20;64.00
47618;DHT22;33336;36.728;-4.414;2023-03-31T04:44:18;22.10;64.10
47618;DHT22;33336;36.728;-4.414;2023-03-31T04:49:22;22.10;64.60
47618;DHT22;33336;36.728;-4.414;2023-03-31T04:54:26;21.80;66.40
47618;DHT22;33336;36.728;-4.414;2023-03-31T04:59:29;21.90;67.10
47618;DHT22;33336;36.728;-4.414;2023-03-31T05:04:33;21.80;66.80
47618;DHT22;33336;36.728;-4.414;2023-03-31T05:09:37;21.60;66.70
47618;DHT22;33336;36.728;-4.414;2023-03-31T05:14:41;21.80;63.70
47618;DHT22;33336;36.728;-4.414;2023-03-31T05:19:45;21.80;63.30
47618;DHT22;33336;36.728;-4.414;2023-03-31T05:24:48;21.90;62.90
47618;DHT22;33336;36.728;-4.414;2023-03-31T05:29:51;22.00;62.20
47618;DHT22;33336;36.728;-4.414;2023-03-31T05:34:55;22.10;61.50
47618;DHT22;33336;36.728;-4.414;2023-03-31T05:40:00;22.00;61.40
47618;DHT22;33336;36.728;-4.414;2023-03-31T05:45:06;21.90;61.50
47618;DHT22;33336;36.728;-4.414;2023-03-31T05:50:11;21.90;61.90
47618;DHT22;33336;36.728;-4.414;2023-03-31T05:55:14;21.80;62.20
47618;DHT22;33336;36.728;-4.414;2023-03-31T06:00:17;21.80;62.50
47618;DHT22;33336;36.728;-4.414;2023-03-31T06:05:22;21.80;62.90
47618;DHT22;33336;36.728;-4.414;2023-03-31T06:10:26;21.80;62.90
47618;DHT22;33336;36.728;-4.414;2023-03-31T06:15:30;21.80;62.70
47618;DHT22;33336;36.728;-4.414;2023-03-31T06:20:34;21.90;62.70
47618;DHT22;33336;36.728;-4.414;2023-03-31T06:25:38;21.80;62.10
47618;DHT22;33336;36.728;-4.414;2023-03-31T06:30:41;21.80;62.10
47618;DHT22;33336;36.728;-4.414;2023-03-31T06:35:45;21.80;62.00
47618;DHT22;33336;36.728;-4.414;2023-03-31T06:40:48;21.90;62.10
47618;DHT22;33336;36.728;-4.414;2023-03-31T06:45:52;21.90;61.60
47618;DHT22;33336;36.728;-4.414;2023-03-31T06:50:59;22.10;61.70
47618;DHT22;33336;36.728;-4.414;2023-03-31T06:56:03;22.00;61.20
47618;DHT22;33336;36.728;-4.414;2023-03-31T07:01:06;22.00;61.30
47618;DHT22;33336;36.728;-4.414;2023-03-31T07:06:10;22.30;61.30
47618;DHT22;33336;36.728;-4.414;2023-03-31T07:11:13;22.30;61.50
47618;DHT22;33336;36.728;-4.414;2023-03-31T07:16:17;22.30;60.80
47618;DHT22;33336;36.728;-4.414;2023-03-31T07:21:21;22.20;60.70
47618;DHT22;33336;36.728;-4.414;2023-03-31T07:26:24;22.40;60.30
47618;DHT22;33336;36.728;-4.414;2023-03-31T07:31:28;22.70;59.70
47618;DHT22;33336;36.728;-4.414;2023-03-31T07:36:32;22.70;58.60
47618;DHT22;33336;36.728;-4.414;2023-03-31T07:41:35;22.60;59.10
47618;DHT22;33336;36.728;-4.414;2023-03-31T07:46:39;22.90;60.00
47618;DHT22;33336;36.728;-4.414;2023-03-31T07:51:43;22.60;60.40
47618;DHT22;33336;36.728;-4.414;2023-03-31T07:56:46;22.70;62.20
47618;DHT22;33336;36.728;-4.414;2023-03-31T08:01:49;22.60;63.80
47618;DHT22;33336;36.728;-4.414;2023-03-31T08:06:54;22.50;64.10
47618;DHT22;33336;36.728;-4.414;2023-03-31T08:11:57;22.70;64.10
47618;DHT22;33336;36.728;-4.414;2023-03-31T08:17:01;22.60;64.20
47618;DHT22;33336;36.728;-4.414;2023-03-31T08:22:06;23.00;63.20
47618;DHT22;33336;36.728;-4.414;2023-03-31T08:27:10;23.30;62.30
47618;DHT22;33336;36.728;-4.414;2023-03-31T08:32:13;23.70;60.70
47618;DHT22;33336;36.728;-4.414;2023-03-31T08:37:17;23.90;59.60
47618;DHT22;33336;36.728;-4.414;2023-03-31T08:42:27;24.00;59.00
47618;DHT22;33336;36.728;-4.414;2023-03-31T08:47:36;24.10;58.10
47618;DHT22;33336;36.728;-4.414;2023-03-31T08:52:43;24.30;57.10
47618;DHT22;33336;36.728;-4.414;2023-03-31T08:57:53;24.30;55.80
47618;DHT22;33336;36.728;-4.414;2023-03-31T09:03:01;24.30;55.60
47618;DHT22;33336;36.728;-4.414;2023-03-31T09:08:13;24.40;54.80
47618;DHT22;33336;36.728;-4.414;2023-03-31T09:13:44;24.40;53.20
47618;DHT22;33336;36.728;-4.414;2023-03-31T09:18:49;24.90;53.10
47618;DHT22;33336;36.728;-4.414;2023-03-31T09:24:00;25.10;53.10
47618;DHT22;33336;36.728;-4.414;2023-03-31T09:29:10;25.00;53.00
47618;DHT22;33336;36.728;-4.414;2023-03-31T09:34:22;25.00;52.50
47618;DHT22;33336;36.728;-4.414;2023-03-31T09:39:27;25.10;53.50
47618;DHT22;33336;36.728;-4.414;2023-03-31T09:44:36;25.30;53.20
47618;DHT22;33336;36.728;-4.414;2023-03-31T09:49:41;25.20;53.40
47618;DHT22;33336;36.728;-4.414;2023-03-31T09:54:49;25.60;52.80
47618;DHT22;33336;36.728;-4.414;2023-03-31T09:59:53;25.90;52.60
47618;DHT22;33336;36.728;-4.414;2023-03-31T10:05:06;25.90;51.10
47618;DHT22;33336;36.728;-4.414;2023-03-31T10:10:27;26.20;50.90
47618;DHT22;33336;36.728;-4.414;2023-03-31T10:15:36;26.70;50.40
47618;DHT22;33336;36.728;-4.414;2023-03-31T10:20:44;26.60;49.80
47618;DHT22;33336;36.728;-4.414;2023-03-31T10:25:52;26.90;47.90
47618;DHT22;33336;36.728;-4.414;2023-03-31T10:30:56;26.80;48.10
47618;DHT22;33336;36.728;-4.414;2023-03-31T10:36:06;27.10;47.10
47618;DHT22;33336;36.728;-4.414;2023-03-31T10:41:12;27.10;47.00
47618;DHT22;33336;36.728;-4.414;2023-03-31T10:46:20;27.10;45.20
47618;DHT22;33336;36.728;-4.414;2023-03-31T10:51:26;27.40;45.60
47618;DHT22;33336;36.728;-4.414;2023-03-31T10:56:35;27.80;44.50
47618;DHT22;33336;36.728;-4.414;2023-03-31T11:01:50;27.80;43.10
47618;DHT22;33336;36.728;-4.414;2023-03-31T11:07:04;27.90;42.90
47618;DHT22;33336;36.728;-4.414;2023-03-31T11:12:18;28.50;43.70
47618;DHT22;33336;36.728;-4.414;2023-03-31T11:17:33;28.30;44.20
47618;DHT22;33336;36.728;-4.414;2023-03-31T11:22:44;28.50;45.10
47618;DHT22;33336;36.728;-4.414;2023-03-31T11:33:43;29.00;47.60
47618;DHT22;33336;36.728;-4.414;2023-03-31T11:38:58;29.50;47.80
47618;DHT22;33336;36.728;-4.414;2023-03-31T11:44:08;28.60;46.50
47618;DHT22;33336;36.728;-4.414;2023-03-31T11:49:18;28.60;48.20
47618;DHT22;33336;36.728;-4.414;2023-03-31T11:54:26;29.10;49.50
47618;DHT22;33336;36.728;-4.414;2023-03-31T11:59:31;29.80;50.00
47618;DHT22;33336;36.728;-4.414;2023-03-31T12:04:38;29.70;50.40
47618;DHT22;33336;36.728;-4.414;2023-03-31T12:09:49;29.90;51.10
47618;DHT22;33336;36.728;-4.414;2023-03-31T12:14:59;30.30;52.10
47618;DHT22;33336;36.728;-4.414;2023-03-31T12:20:10;30.60;52.00
47618;DHT22;33336;36.728;-4.414;2023-03-31T12:25:19;30.60;52.60
47618;DHT22;33336;36.728;-4.414;2023-03-31T12:30:46;29.90;53.60
47618;DHT22;33336;36.728;-4.414;2023-03-31T12:36:36;30.20;54.00
47618;DHT22;33336;36.728;-4.414;2023-03-31T12:41:49;30.50;54.20
47618;DHT22;33336;36.728;-4.414;2023-03-31T12:47:20;30.60;54.60
47618;DHT22;33336;36.728;-4.414;2023-03-31T12:52:35;30.70;54.50
47618;DHT22;33336;36.728;-4.414;2023-03-31T12:57:45;30.60;54.50
47618;DHT22;33336;36.728;-4.414;2023-03-31T13:08:53;30.90;54.40
47618;DHT22;33336;36.728;-4.414;2023-03-31T13:13:59;31.30;54.50
47618;DHT22;33336;36.728;-4.414;2023-03-31T13:19:03;31.10;54.30
47618;DHT22;33336;36.728;-4.414;2023-03-31T13:24:07;30.80;54.60
47618;DHT22;33336;36.728;-4.414;2023-03-31T13:29:22;30.30;55.00
47618;DHT22;33336;36.728;-4.414;2023-03-31T13:34:28;30.30;55.20
47618;DHT22;33336;36.728;-4.414;2023-03-31T13:39:47;30.00;54.90
47618;DHT22;33336;36.728;-4.414;2023-03-31T13:45:04;30.00;55.30
47618;DHT22;33336;36.728;-4.414;2023-03-31T14:01:55;29.30;55.70
47618;DHT22;33336;36.728;-4.414;2023-03-31T14:07:06;29.30;55.30
47618;DHT22;33336;36.728;-4.414;2023-03-31T14:12:21;29.20;55.10
47618;DHT22;33336;36.728;-4.414;2023-03-31T14:17:27;29.00;55.60
47618;DHT22;33336;36.728;-4.414;2023-03-31T14:22:40;29.10;55.30
47618;DHT22;33336;36.728;-4.414;2023-03-31T14:27:54;29.20;55.20
47618;DHT22;33336;36.728;-4.414;2023-03-31T14:33:06;28.90;55.80
47618;DHT22;33336;36.728;-4.414;2023-03-31T14:38:15;29.60;55.60
47618;DHT22;33336;36.728;-4.414;2023-03-31T14:43:21;29.40;55.40
47618;DHT22;33336;36.728;-4.414;2023-03-31T14:48:28;29.60;55.40
47618;DHT22;33336;36.728;-4.414;2023-03-31T14:53:35;29.70;55.70
47618;DHT22;33336;36.728;-4.414;2023-03-31T14:58:40;30.00;55.60
47618;DHT22;33336;36.728;-4.414;2023-03-31T15:03:46;30.60;55.70
47618;DHT22;33336;36.728;-4.414;2023-03-31T15:08:50;31.40;55.30
47618;DHT22;33336;36.728;-4.414;2023-03-31T15:13:57;31.70;55.60
47618;DHT22;33336;36.728;-4.414;2023-03-31T15:19:06;32.80;55.00
47618;DHT22;33336;36.728;-4.414;2023-03-31T15:24:13;32.60;55.10
47618;DHT22;33336;36.728;-4.414;2023-03-31T15:29:19;33.00;54.20
47618;DHT22;33336;36.728;-4.414;2023-03-31T15:34:28;33.10;54.40
47618;DHT22;33336;36.728;-4.414;2023-03-31T15:39:35;33.00;54.20
47618;DHT22;33336;36.728;-4.414;2023-03-31T15:44:42;34.20;54.80
47618;DHT22;33336;36.728;-4.414;2023-03-31T15:49:49;33.30;54.60
47618;DHT22;33336;36.728;-4.414;2023-03-31T15:54:54;33.10;54.10
47618;DHT22;33336;36.728;-4.414;2023-03-31T15:59:57;34.30;54.60
47618;DHT22;33336;36.728;-4.414;2023-03-31T16:05:02;36.00;53.70
47618;DHT22;33336;36.728;-4.414;2023-03-31T16:10:08;35.30;53.10
47618;DHT22;33336;36.728;-4.414;2023-03-31T16:15:19;35.50;52.90
47618;DHT22;33336;36.728;-4.414;2023-03-31T16:20:25;36.50;53.30
47618;DHT22;33336;36.728;-4.414;2023-03-31T16:25:30;34.90;53.80
47618;DHT22;33336;36.728;-4.414;2023-03-31T16:30:34;35.80;53.40
47618;DHT22;33336;36.728;-4.414;2023-03-31T16:35:40;35.20;52.70
47618;DHT22;33336;36.728;-4.414;2023-03-31T16:40:45;34.70;54.10
47618;DHT22;33336;36.728;-4.414;2023-03-31T16:45:50;36.30;53.00
47618;DHT22;33336;36.728;-4.414;2023-03-31T16:50:56;35.00;53.20
47618;DHT22;33336;36.728;-4.414;2023-03-31T16:56:01;36.40;53.00
47618;DHT22;33336;36.728;-4.414;2023-03-31T17:01:04;36.80;52.50
47618;DHT22;33336;36.728;-4.414;2023-03-31T17:06:11;36.10;52.30
47618;DHT22;33336;36.728;-4.414;2023-03-31T17:11:14;35.90;52.90
47618;DHT22;33336;36.728;-4.414;2023-03-31T17:16:18;33.70;54.20
47618;DHT22;33336;36.728;-4.414;2023-03-31T17:21:23;33.80;53.80
47618;DHT22;33336;36.728;-4.414;2023-03-31T17:26:27;32.50;54.80
47618;DHT22;33336;36.728;-4.414;2023-03-31T17:31:29;32.60;54.90
47618;DHT22;33336;36.728;-4.414;2023-03-31T17:36:34;31.90;56.00
47618;DHT22;33336;36.728;-4.414;2023-03-31T17:41:37;31.30;56.20
47618;DHT22;33336;36.728;-4.414;2023-03-31T17:46:41;31.00;56.90
47618;DHT22;33336;36.728;-4.414;2023-03-31T17:51:45;29.50;58.10
47618;DHT22;33336;36.728;-4.414;2023-03-31T17:56:48;29.40;58.80
47618;DHT22;33336;36.728;-4.414;2023-03-31T18:01:51;29.20;59.20
47618;DHT22;33336;36.728;-4.414;2023-03-31T18:06:56;29.60;58.90
47618;DHT22;33336;36.728;-4.414;2023-03-31T18:11:59;29.60;58.80
47618;DHT22;33336;36.728;-4.414;2023-03-31T18:17:03;29.10;58.90
47618;DHT22;33336;36.728;-4.414;2023-03-31T18:22:08;28.70;59.60
47618;DHT22;33336;36.728;-4.414;2023-03-31T18:27:12;29.00;59.20
47618;DHT22;33336;36.728;-4.414;2023-03-31T18:32:15;28.50;59.80
47618;DHT22;33336;36.728;-4.414;2023-03-31T18:37:20;28.10;60.20
47618;DHT22;33336;36.728;-4.414;2023-03-31T18:42:23;27.60;61.20
47618;DHT22;33336;36.728;-4.414;2023-03-31T18:47:27;27.80;60.80
47618;DHT22;33336;36.728;-4.414;2023-03-31T18:52:31;27.30;61.80
47618;DHT22;33336;36.728;-4.414;2023-03-31T18:57:36;26.90;62.50
47618;DHT22;33336;36.728;-4.414;2023-03-31T19:02:38;26.80;62.70
47618;DHT22;33336;36.728;-4.414;2023-03-31T19:07:44;26.40;63.50
47618;DHT22;33336;36.728;-4.414;2023-03-31T19:12:47;26.50;63.50
47618;DHT22;33336;36.728;-4.414;2023-03-31T19:17:51;26.50;63.50
47618;DHT22;33336;36.728;-4.414;2023-03-31T19:22:55;26.20;64.20
47618;DHT22;33336;36.728;-4.414;2023-03-31T19:27:59;26.20;64.40
47618;DHT22;33336;36.728;-4.414;2023-03-31T19:33:01;26.00;64.70
47618;DHT22;33336;36.728;-4.414;2023-03-31T19:38:06;26.30;63.80
47618;DHT22;33336;36.728;-4.414;2023-03-31T19:43:15;26.20;64.30
47618;DHT22;33336;36.728;-4.414;2023-03-31T19:48:22;26.10;64.60
47618;DHT22;33336;36.728;-4.414;2023-03-31T19:53:28;25.90;64.60
47618;DHT22;33336;36.728;-4.414;2023-03-31T19:58:35;26.00;64.70
47618;DHT22;33336;36.728;-4.414;2023-03-31T20:03:38;25.80;64.90
47618;DHT22;33336;36.728;-4.414;2023-03-31T20:08:43;25.80;64.80
47618;DHT22;33336;36.728;-4.414;2023-03-31T20:13:46;25.70;65.00
47618;DHT22;33336;36.728;-4.414;2023-03-31T20:18:51;25.80;64.80
47618;DHT22;33336;36.728;-4.414;2023-03-31T20:23:56;25.80;64.90
47618;DHT22;33336;36.728;-4.414;2023-03-31T20:29:01;25.80;64.90
47618;DHT22;33336;36.728;-4.414;2023-03-31T20:34:05;25.60;65.30
47618;DHT22;33336;36.728;-4.414;2023-03-31T20:39:12;25.80;65.00
47618;DHT22;33336;36.728;-4.414;2023-03-31T20:44:15;25.60;66.10
47618;DHT22;33336;36.728;-4.414;2023-03-31T20:49:18;25.60;66.20
47618;DHT22;33336;36.728;-4.414;2023-03-31T20:54:23;25.30;67.10
47618;DHT22;33336;36.728;-4.414;2023-03-31T20:59:27;25.50;67.10
47618;DHT22;33336;36.728;-4.414;2023-03-31T21:04:29;25.40;67.40
47618;DHT22;33336;36.728;-4.414;2023-03-31T21:09:34;25.40;67.80
47618;DHT22;33336;36.728;-4.414;2023-03-31T21:14:37;25.20;68.50
47618;DHT22;33336;36.728;-4.414;2023-03-31T21:19:40;25.20;68.80
47618;DHT22;33336;36.728;-4.414;2023-03-31T21:24:45;24.80;70.90
47618;DHT22;33336;36.728;-4.414;2023-03-31T21:29:49;24.80;72.20
47618;DHT22;33336;36.728;-4.414;2023-03-31T21:34:52;25.00;73.20
47618;DHT22;33336;36.728;-4.414;2023-03-31T21:39:57;24.70;76.60
47618;DHT22;33336;36.728;-4.414;2023-03-31T21:45:00;24.50;77.90
47618;DHT22;33336;36.728;-4.414;2023-03-31T21:50:04;24.50;78.40
47618;DHT22;33336;36.728;-4.414;2023-03-31T21:55:09;24.50;78.20
47618;DHT22;33336;36.728;-4.414;2023-03-31T22:00:13;24.60;77.10
47618;DHT22;33336;36.728;-4.414;2023-03-31T22:05:16;24.60;77.40
47618;DHT22;33336;36.728;-4.414;2023-03-31T22:10:22;24.60;77.30
47618;DHT22;33336;36.728;-4.414;2023-03-31T22:15:25;24.30;77.90
47618;DHT22;33336;36.728;-4.414;2023-03-31T22:20:28;24.10;78.50
47618;DHT22;33336;36.728;-4.414;2023-03-31T22:25:33;24.00;78.70
47618;DHT22;33336;36.728;-4.414;2023-03-31T22:30:36;23.90;79.10
47618;DHT22;33336;36.728;-4.414;2023-03-31T22:35:39;23.90;79.20
47618;DHT22;33336;36.728;-4.414;2023-03-31T22:40:44;24.00;78.90
47618;DHT22;33336;36.728;-4.414;2023-03-31T22:45:47;23.60;79.80
47618;DHT22;33336;36.728;-4.414;2023-03-31T22:50:50;23.60;80.20
47618;DHT22;33336;36.728;-4.414;2023-03-31T22:55:55;23.60;80.30
47618;DHT22;33336;36.728;-4.414;2023-03-31T23:00:59;23.30;80.80
47618;DHT22;33336;36.728;-4.414;2023-03-31T23:06:03;23.40;80.80
47618;DHT22;33336;36.728;-4.414;2023-03-31T23:11:10;23.40;80.60
47618;DHT22;33336;36.728;-4.414;2023-03-31T23:16:16;23.20;80.80
47618;DHT22;33336;36.728;-4.414;2023-03-31T23:21:21;23.30;80.60
47618;DHT22;33336;36.728;-4.414;2023-03-31T23:26:27;23.30;79.80
47618;DHT22;33336;36.728;-4.414;2023-03-31T23:31:31;23.20;80.00
47618;DHT22;33336;36.728;-4.414;2023-03-31T23:36:34;23.10;80.30
47618;DHT22;33336;36.728;-4.414;2023-03-31T23:42:05;23.10;79.60
47618;DHT22;33336;36.728;-4.414;2023-03-31T23:47:07;23.10;79.70
47618;DHT22;33336;36.728;-4.414;2023-03-31T23:52:10;22.80;79.70
47618;DHT22;33336;36.728;-4.414;2023-03-31T23:57:15;23.00;79.40
